createdAt,value
2022-09-23T00:01:51.325Z,101798.16
2022-09-23T00:04:20.185Z,101855.00
2022-09-23T00:06:48.566Z,101574.06
2022-09-23T00:09:16.965Z,101649.28
2022-09-23T00:11:45.464Z,101697.97
2022-09-23T00:14:13.947Z,101808.69
2022-09-23T00:16:42.445Z,101799.94
2022-09-23T00:19:12.253Z,101841.44
2022-09-23T00:21:40.671Z,101813.88
2022-09-23T00:24:09.210Z,101837.09
2022-09-23T00:26:37.723Z,101667.72
2022-09-23T00:29:06.230Z,101828.22
2022-09-23T00:31:34.653Z,101827.88
2022-09-23T00:34:03.408Z,101781.81
2022-09-23T00:36:33.437Z,101794.94
2022-09-23T00:39:04.563Z,101638.06
2022-09-23T00:41:35.308Z,101829.47
2022-09-23T00:44:43.844Z,101837.38
2022-09-23T00:47:21.737Z,101838.78
2022-09-23T00:50:01.877Z,101818.38
2022-09-23T00:52:33.278Z,101674.66
2022-09-23T00:55:06.507Z,101777.41
2022-09-23T00:57:37.203Z,101842.03
2022-09-23T01:00:08.966Z,101837.38
2022-09-23T01:02:37.776Z,101790.41
2022-09-23T01:05:08.745Z,101699.13
2022-09-23T01:07:38.570Z,101643.09
2022-09-23T01:10:09.318Z,101753.03
2022-09-23T01:13:06.600Z,101793.88
2022-09-23T01:15:45.889Z,101781.50
2022-09-23T01:18:26.694Z,101815.06
2022-09-23T01:21:09.680Z,101767.69
2022-09-23T01:24:27.558Z,101803.31
2022-09-23T01:27:37.699Z,101798.78
2022-09-23T01:30:21.270Z,101808.66
2022-09-23T01:33:09.140Z,101646.53
2022-09-23T01:35:51.294Z,101779.53
2022-09-23T01:38:33.696Z,101774.19
2022-09-23T01:41:10.306Z,101727.16
2022-09-23T01:43:47.659Z,101812.22
2022-09-23T01:46:22.237Z,101817.75
2022-09-23T01:49:00.977Z,101786.75
2022-09-23T01:51:35.171Z,101810.72
2022-09-23T01:54:10.904Z,101794.63
2022-09-23T01:56:46.480Z,101775.22
2022-09-23T01:59:21.673Z,101553.31
2022-09-23T02:01:57.723Z,101807.94
2022-09-23T02:04:32.037Z,101807.00
2022-09-23T02:07:06.608Z,101691.81
2022-09-23T02:09:42.635Z,101797.47
2022-09-23T02:12:18.277Z,101805.19
2022-09-23T02:14:56.642Z,101635.00
2022-09-23T02:17:32.840Z,101737.72
2022-09-23T02:20:07.330Z,101733.09
2022-09-23T02:22:42.472Z,101632.88
2022-09-23T02:25:13.115Z,101784.69
2022-09-23T02:27:48.953Z,101761.63
2022-09-23T02:30:22.434Z,101755.31
2022-09-23T02:33:00.869Z,101577.06
2022-09-23T02:35:37.161Z,101635.50
2022-09-23T02:38:19.117Z,101776.31
2022-09-23T02:40:55.426Z,101565.47
2022-09-23T02:43:35.806Z,101775.41
2022-09-23T02:46:05.982Z,101593.75
2022-09-23T02:48:41.070Z,101746.06
2022-09-23T02:51:11.651Z,101771.91
2022-09-23T02:53:40.745Z,101763.81
2022-09-23T02:56:19.086Z,101743.13
2022-09-23T02:58:48.428Z,101749.56
2022-09-23T03:01:32.619Z,101761.91
2022-09-23T03:04:14.057Z,101735.50
2022-09-23T03:07:01.787Z,101759.53
2022-09-23T03:09:37.676Z,101745.28
2022-09-23T03:12:16.869Z,101751.50
2022-09-23T03:14:54.935Z,101742.53
2022-09-23T03:17:30.375Z,101743.81
2022-09-23T03:20:05.884Z,101749.88
2022-09-23T03:22:41.480Z,101676.09
2022-09-23T03:25:15.440Z,101748.13
2022-09-23T03:27:45.984Z,101607.31
2022-09-23T03:30:15.363Z,101748.41
2022-09-23T03:32:47.964Z,101713.28
2022-09-23T03:35:16.766Z,101716.88
2022-09-23T03:37:54.792Z,101646.19
2022-09-23T03:40:28.114Z,101740.19
2022-09-23T03:42:58.452Z,101739.44
2022-09-23T03:45:31.085Z,101748.97
2022-09-23T03:47:59.661Z,101705.69
2022-09-23T03:50:29.277Z,101566.78
2022-09-23T03:52:59.380Z,101703.59
2022-09-23T03:55:27.952Z,101723.88
2022-09-23T03:57:56.842Z,101710.75
2022-09-23T04:00:25.315Z,101671.75
2022-09-23T04:02:53.806Z,101686.00
2022-09-23T04:05:22.242Z,101689.41
2022-09-23T04:07:51.196Z,101671.13
2022-09-23T04:10:21.101Z,101649.09
2022-09-23T04:12:49.623Z,101531.44
2022-09-23T04:15:21.988Z,101534.22
2022-09-23T04:17:50.956Z,101697.22
2022-09-23T04:20:19.346Z,101686.63
2022-09-23T04:22:47.716Z,101670.13
2022-09-23T04:25:16.366Z,101541.38
2022-09-23T04:27:46.191Z,101473.41
2022-09-23T04:30:15.391Z,101655.16
2022-09-23T04:32:43.807Z,101491.25
2022-09-23T04:35:12.210Z,101689.00
2022-09-23T04:37:40.639Z,101646.56
2022-09-23T04:40:10.944Z,101680.34
2022-09-23T04:42:39.713Z,101676.03
2022-09-23T04:45:10.933Z,101663.38
2022-09-23T04:47:39.429Z,101617.31
2022-09-23T04:50:09.114Z,101646.75
2022-09-23T04:52:37.526Z,101671.63
2022-09-23T04:55:11.122Z,101691.16
2022-09-23T04:57:39.798Z,101689.41
2022-09-23T05:00:12.246Z,101614.06
2022-09-23T05:02:45.233Z,101550.66
2022-09-23T05:05:14.253Z,101528.31
2022-09-23T05:07:44.315Z,101670.38
2022-09-23T05:10:12.882Z,101643.50
2022-09-23T05:12:41.482Z,101630.16
2022-09-23T05:15:16.218Z,101673.50
2022-09-23T05:17:44.692Z,101686.94
2022-09-23T05:20:13.637Z,101671.94
2022-09-23T05:22:42.023Z,101680.25
2022-09-23T05:25:11.014Z,101664.41
2022-09-23T05:27:39.965Z,101633.09
2022-09-23T05:30:11.852Z,101633.84
2022-09-23T05:32:40.434Z,101641.22
2022-09-23T05:35:09.826Z,101668.75
2022-09-23T05:37:38.973Z,101697.81
2022-09-23T05:40:08.285Z,101556.97
2022-09-23T05:42:36.750Z,101621.47
2022-09-23T05:45:07.637Z,101707.50
2022-09-23T05:47:38.256Z,101688.13
2022-09-23T05:50:07.894Z,101540.16
2022-09-23T05:52:36.510Z,101565.91
2022-09-23T05:55:08.859Z,101644.66
2022-09-23T05:57:37.271Z,101702.28
2022-09-23T06:00:07.356Z,101699.47
2022-09-23T06:02:42.046Z,101565.66
2022-09-23T06:05:12.015Z,101703.19
2022-09-23T06:07:40.417Z,101703.16
2022-09-23T06:10:09.647Z,101601.31
2022-09-23T06:12:38.065Z,101712.09
2022-09-23T06:15:08.475Z,101555.41
2022-09-23T06:17:36.891Z,101712.09
2022-09-23T06:20:08.751Z,101675.34
2022-09-23T06:22:39.824Z,101575.41
2022-09-23T06:25:12.299Z,101626.69
2022-09-23T06:27:40.731Z,101699.34
2022-09-23T06:30:13.744Z,101621.94
2022-09-23T06:32:42.391Z,101658.34
2022-09-23T06:35:23.046Z,101650.63
2022-09-23T06:37:53.400Z,101687.03
2022-09-23T06:40:23.109Z,101681.81
2022-09-23T06:42:59.365Z,101683.94
2022-09-23T06:45:28.557Z,101661.94
2022-09-23T06:47:59.051Z,101685.25
2022-09-23T06:50:29.674Z,101685.19
2022-09-23T06:52:58.486Z,101498.03
2022-09-23T06:55:28.280Z,101538.28
2022-09-23T06:57:59.119Z,101631.16
2022-09-23T07:00:29.258Z,101676.41
2022-09-23T07:02:57.933Z,101669.41
2022-09-23T07:05:28.128Z,101671.53
2022-09-23T07:07:56.542Z,101609.81
2022-09-23T07:10:25.068Z,101597.53
2022-09-23T07:12:53.522Z,101618.88
2022-09-23T07:15:21.962Z,101668.50
2022-09-23T07:17:50.530Z,101642.88
2022-09-23T07:20:19.101Z,101667.75
2022-09-23T07:22:52.672Z,101516.41
2022-09-23T07:25:21.324Z,101665.50
2022-09-23T07:27:49.731Z,101581.56
2022-09-23T07:30:24.670Z,101630.06
2022-09-23T07:32:53.797Z,101598.44
2022-09-23T07:35:22.230Z,101600.41
2022-09-23T07:37:53.018Z,101505.94
2022-09-23T07:40:21.570Z,101589.06
2022-09-23T07:42:50.141Z,101510.44
2022-09-23T07:45:21.065Z,101595.38
2022-09-23T07:47:50.062Z,101643.31
2022-09-23T07:50:19.078Z,101558.63
2022-09-23T07:52:47.460Z,101634.66
2022-09-23T07:55:21.167Z,101613.66
2022-09-23T07:57:49.710Z,101654.44
2022-09-23T08:00:18.672Z,101663.47
2022-09-23T08:02:50.750Z,101657.41
2022-09-23T08:05:24.221Z,101667.28
2022-09-23T08:07:52.994Z,101663.78
2022-09-23T08:10:23.053Z,101664.63
2022-09-23T08:12:51.548Z,101668.19
2022-09-23T08:15:20.271Z,101583.50
2022-09-23T08:17:48.665Z,101631.97
2022-09-23T08:20:31.342Z,101668.13
2022-09-23T08:23:00.021Z,101594.91
2022-09-23T08:25:32.937Z,101648.63
2022-09-23T08:28:03.451Z,101550.78
2022-09-23T08:30:32.177Z,101649.47
2022-09-23T08:33:00.704Z,101663.59
2022-09-23T08:35:29.198Z,101628.31
2022-09-23T08:37:57.672Z,101666.19
2022-09-23T08:40:26.872Z,101622.06
2022-09-23T08:42:57.032Z,101625.63
2022-09-23T08:45:29.144Z,101527.84
2022-09-23T08:48:10.767Z,101606.19
2022-09-23T08:50:46.008Z,101615.00
2022-09-23T08:53:24.896Z,101525.84
2022-09-23T08:55:56.358Z,101578.75
2022-09-23T08:58:41.010Z,101574.25
2022-09-23T09:01:19.708Z,101639.34
2022-09-23T09:03:51.950Z,101624.19
2022-09-23T09:06:45.562Z,101476.19
2022-09-23T09:09:28.384Z,101615.31
2022-09-23T09:12:05.822Z,101657.53
2022-09-23T09:14:44.451Z,101600.19
2022-09-23T09:17:24.716Z,101621.22
2022-09-23T09:19:57.586Z,101587.59
2022-09-23T09:22:48.037Z,101650.78
2022-09-23T09:25:38.763Z,101566.81
2022-09-23T09:28:18.995Z,101518.50
2022-09-23T09:30:55.049Z,101622.22
2022-09-23T09:33:32.359Z,101648.00
2022-09-23T09:36:16.341Z,101581.03
2022-09-23T09:38:44.724Z,101642.41
2022-09-23T09:41:17.863Z,101650.03
2022-09-23T09:43:56.335Z,101584.81
2022-09-23T09:46:53.109Z,101646.38
2022-09-23T09:49:38.117Z,101639.44
2022-09-23T09:52:22.728Z,101645.31
2022-09-23T09:54:52.226Z,101600.25
2022-09-23T09:57:35.154Z,101582.03
2022-09-23T10:00:35.570Z,101569.88
2022-09-23T10:03:31.165Z,101571.66
2022-09-23T10:05:59.788Z,101615.88
2022-09-23T10:08:33.933Z,101558.50
2022-09-23T10:11:07.008Z,101463.44
2022-09-23T10:13:36.266Z,101592.78
2022-09-23T10:16:07.419Z,101497.50
2022-09-23T10:18:40.288Z,101502.97
2022-09-23T10:21:13.310Z,101562.44
2022-09-23T10:23:45.245Z,101474.44
2022-09-23T10:26:17.509Z,101598.75
2022-09-23T10:28:51.664Z,101584.41
2022-09-23T10:31:26.181Z,101591.84
2022-09-23T10:33:59.864Z,101598.16
2022-09-23T10:36:30.102Z,101600.16
2022-09-23T10:39:15.760Z,101560.50
2022-09-23T10:42:14.394Z,101598.69
2022-09-23T10:45:18.424Z,101563.59
2022-09-23T10:47:57.889Z,101532.53
2022-09-23T10:50:39.059Z,101583.03
2022-09-23T10:53:20.027Z,101491.09
2022-09-23T10:56:12.717Z,101511.22
2022-09-23T10:59:18.794Z,101599.44
2022-09-23T11:02:02.174Z,101575.72
2022-09-23T11:05:11.382Z,101567.16
2022-09-23T11:07:47.522Z,101570.69
2022-09-23T11:10:50.306Z,101604.13
2022-09-23T11:13:37.101Z,101547.84
2022-09-23T11:16:22.376Z,101564.72
2022-09-23T11:19:19.267Z,101614.94
2022-09-23T11:22:01.701Z,101580.50
2022-09-23T11:25:02.025Z,101604.97
2022-09-23T11:27:52.101Z,101593.72
2022-09-23T11:30:22.167Z,101592.25
2022-09-23T11:33:21.059Z,101486.28
2022-09-23T11:35:55.222Z,101581.09
2022-09-23T11:38:29.459Z,101532.88
2022-09-23T11:41:06.785Z,101560.50
2022-09-23T11:43:40.141Z,101571.59
2022-09-23T11:46:29.510Z,101585.94
2022-09-23T11:49:06.503Z,101484.38
2022-09-23T11:51:45.146Z,101571.19
2022-09-23T11:54:21.199Z,101510.69
2022-09-23T11:56:55.458Z,101575.53
2022-09-23T11:59:40.506Z,101406.19
2022-09-23T12:02:24.742Z,101493.69
2022-09-23T12:05:09.287Z,101477.44
2022-09-23T12:07:51.874Z,101339.34
2022-09-23T12:10:20.483Z,101502.72
2022-09-23T12:13:01.027Z,101555.19
2022-09-23T12:15:47.110Z,101546.91
2022-09-23T12:18:55.929Z,101474.28
2022-09-23T12:21:51.079Z,101523.69
2022-09-23T12:24:46.765Z,101517.94
2022-09-23T12:27:28.738Z,101526.03
2022-09-23T12:30:03.108Z,101558.41
2022-09-23T12:32:32.636Z,101512.69
2022-09-23T12:35:02.825Z,101561.66
2022-09-23T12:37:37.369Z,101547.91
2022-09-23T12:40:11.319Z,101494.31
2022-09-23T12:42:45.967Z,101403.19
2022-09-23T12:45:43.401Z,101531.88
2022-09-23T12:49:00.548Z,101530.59
2022-09-23T12:51:31.021Z,101502.69
2022-09-23T12:54:24.183Z,101534.53
2022-09-23T12:57:05.770Z,101508.47
2022-09-23T12:59:59.135Z,101541.88
2022-09-23T13:02:37.299Z,101544.81
2022-09-23T13:05:38.402Z,101540.94
2022-09-23T13:08:10.719Z,101432.22
2022-09-23T13:10:48.323Z,101532.38
2022-09-23T13:13:24.339Z,101520.53
2022-09-23T13:15:55.115Z,101549.03
2022-09-23T13:19:01.887Z,101532.84
2022-09-23T13:22:07.685Z,101509.19
2022-09-23T13:24:46.217Z,101533.25
2022-09-23T13:27:23.956Z,101511.84
2022-09-23T13:30:00.619Z,101502.78
2022-09-23T13:32:34.133Z,101508.38
2022-09-23T13:35:07.745Z,101516.50
2022-09-23T13:37:47.453Z,101512.44
2022-09-23T13:40:23.953Z,101491.09
2022-09-23T13:42:58.579Z,101467.25
2022-09-23T13:45:29.738Z,101480.75
2022-09-23T13:48:05.986Z,101515.59
2022-09-23T13:50:41.045Z,101506.69
2022-09-23T13:53:14.464Z,101495.88
2022-09-23T13:55:43.095Z,101466.16
2022-09-23T13:58:20.527Z,101503.47
2022-09-23T14:00:50.395Z,101470.84
2022-09-23T14:03:26.293Z,101495.84
2022-09-23T14:05:57.277Z,101490.81
2022-09-23T14:08:26.408Z,101476.94
2022-09-23T14:10:55.440Z,101494.47
2022-09-23T14:13:28.024Z,101473.16
2022-09-23T14:15:59.944Z,101444.50
2022-09-23T14:18:38.394Z,101459.75
2022-09-23T14:21:28.829Z,101399.59
2022-09-23T14:23:57.533Z,101396.16
2022-09-23T14:26:27.463Z,101469.59
2022-09-23T14:28:56.059Z,101450.13
2022-09-23T14:31:25.065Z,101472.47
2022-09-23T14:33:53.550Z,101452.31
2022-09-23T14:36:40.256Z,101484.47
2022-09-23T14:39:12.358Z,101490.41
2022-09-23T14:41:45.013Z,101478.50
2022-09-23T14:44:23.586Z,101372.44
2022-09-23T14:46:58.022Z,101470.16
2022-09-23T14:49:27.441Z,101416.50
2022-09-23T14:52:00.568Z,101471.78
2022-09-23T14:54:36.419Z,101480.38
2022-09-23T14:57:26.483Z,101480.19
2022-09-23T14:59:57.426Z,101373.03
2022-09-23T15:02:35.633Z,101441.69
2022-09-23T15:05:20.700Z,101481.72
2022-09-23T15:07:53.186Z,101334.28
2022-09-23T15:10:27.797Z,101415.44
2022-09-23T15:13:05.733Z,101436.97
2022-09-23T15:15:35.712Z,101426.69
2022-09-23T15:18:08.299Z,101472.22
2022-09-23T15:20:37.636Z,101374.63
2022-09-23T15:23:07.768Z,101449.38
2022-09-23T15:25:42.036Z,101467.81
2022-09-23T15:28:23.018Z,101462.34
2022-09-23T15:30:51.476Z,101446.59
2022-09-23T15:33:25.198Z,101446.56
2022-09-23T15:35:53.834Z,101277.88
2022-09-23T15:38:23.912Z,101464.19
2022-09-23T15:40:52.344Z,101463.47
2022-09-23T15:43:24.560Z,101463.50
2022-09-23T15:45:56.137Z,101453.72
2022-09-23T15:48:28.483Z,101459.88
2022-09-23T15:50:59.186Z,101306.28
2022-09-23T15:53:29.937Z,101398.50
2022-09-23T15:55:58.751Z,101466.34
2022-09-23T15:58:28.069Z,101316.22
2022-09-23T16:00:58.025Z,101462.06
2022-09-23T16:03:28.995Z,101452.50
2022-09-23T16:06:00.078Z,101399.72
2022-09-23T16:08:33.203Z,101411.28
2022-09-23T16:11:02.083Z,101454.44
2022-09-23T16:13:30.623Z,101466.66
2022-09-23T16:15:59.154Z,101460.59
2022-09-23T16:18:27.707Z,101409.59
2022-09-23T16:20:57.106Z,101326.31
2022-09-23T16:23:35.522Z,101453.84
2022-09-23T16:26:08.763Z,101408.94
2022-09-23T16:28:37.262Z,101436.28
2022-09-23T16:31:06.148Z,101323.00
2022-09-23T16:33:35.140Z,101448.69
2022-09-23T16:36:03.922Z,101354.56
2022-09-23T16:38:32.883Z,101447.78
2022-09-23T16:41:01.546Z,101463.75
2022-09-23T16:43:35.023Z,101370.56
2022-09-23T16:46:03.481Z,101456.69
2022-09-23T16:48:31.941Z,101453.13
2022-09-23T16:51:05.448Z,101444.44
2022-09-23T16:53:35.517Z,101456.81
2022-09-23T16:56:09.438Z,101469.19
2022-09-23T16:58:40.621Z,101447.16
2022-09-23T17:01:38.782Z,101456.91
2022-09-23T17:04:08.304Z,101457.91
2022-09-23T17:06:37.289Z,101447.34
2022-09-23T17:09:06.066Z,101468.50
2022-09-23T17:11:34.794Z,101444.75
2022-09-23T17:14:05.317Z,101452.69
2022-09-23T17:16:36.021Z,101397.25
2022-09-23T17:19:08.613Z,101448.31
2022-09-23T17:21:37.923Z,101426.34
2022-09-23T17:24:07.300Z,101413.16
2022-09-23T17:26:36.345Z,101285.63
2022-09-23T17:29:06.260Z,101473.06
2022-09-23T17:31:35.177Z,101344.59
2022-09-23T17:34:03.748Z,101460.81
2022-09-23T17:36:32.189Z,101467.88
2022-09-23T17:39:00.678Z,101357.00
2022-09-23T17:41:29.880Z,101482.91
2022-09-23T17:43:58.653Z,101429.19
2022-09-23T17:46:30.278Z,101381.66
2022-09-23T17:48:59.488Z,101488.19
2022-09-23T17:51:28.597Z,101413.41
2022-09-23T17:53:57.380Z,101340.34
2022-09-23T17:56:30.137Z,101484.69
2022-09-23T17:59:02.852Z,101432.78
2022-09-23T18:01:32.990Z,101269.91
2022-09-23T18:04:05.611Z,101367.59
2022-09-23T18:06:37.978Z,101480.31
2022-09-23T18:09:08.743Z,101463.59
2022-09-23T18:11:39.762Z,101425.78
2022-09-23T18:14:13.427Z,101453.91
2022-09-23T18:16:46.129Z,101338.59
2022-09-23T18:19:17.058Z,101380.84
2022-09-23T18:21:48.507Z,101448.69
2022-09-23T18:24:33.786Z,101438.97
2022-09-23T18:27:02.738Z,101476.81
2022-09-23T18:29:31.569Z,101492.69
2022-09-23T18:32:02.051Z,101371.94
2022-09-23T18:34:30.675Z,101441.56
2022-09-23T18:36:59.456Z,101474.16
2022-09-23T18:39:28.056Z,101387.84
2022-09-23T18:41:56.502Z,101379.88
2022-09-23T18:44:25.214Z,101476.75
2022-09-23T18:46:53.662Z,101453.00
2022-09-23T18:49:40.907Z,101460.06
2022-09-23T18:52:12.326Z,101429.19
2022-09-23T18:54:40.825Z,101504.97
2022-09-23T18:57:09.335Z,101504.03
2022-09-23T18:59:38.011Z,101400.00
2022-09-23T19:02:06.728Z,101496.09
2022-09-23T19:04:37.102Z,101502.25
2022-09-23T19:07:05.672Z,101505.78
2022-09-23T19:09:34.357Z,101502.28
2022-09-23T19:12:03.690Z,101507.53
2022-09-23T19:14:32.286Z,101505.78
2022-09-23T19:17:00.810Z,101327.72
2022-09-23T19:19:30.273Z,101500.53
2022-09-23T19:22:00.718Z,101496.16
2022-09-23T19:24:29.693Z,101502.34
2022-09-23T19:26:58.384Z,101448.59
2022-09-23T19:29:27.340Z,101505.84
2022-09-23T19:31:56.220Z,101490.00
2022-09-23T19:34:29.031Z,101498.81
2022-09-23T19:36:59.954Z,101431.78
2022-09-23T19:39:31.723Z,101418.63
2022-09-23T19:42:01.699Z,101376.22
2022-09-23T19:44:30.247Z,101465.25
2022-09-23T19:46:58.955Z,101398.25
2022-09-23T19:49:28.600Z,101475.81
2022-09-23T19:51:56.961Z,101428.22
2022-09-23T19:54:27.607Z,101438.75
2022-09-23T19:56:56.504Z,101498.75
2022-09-23T19:59:26.558Z,101408.84
2022-09-23T20:01:55.651Z,101467.94
2022-09-23T20:04:24.355Z,101371.03
2022-09-23T20:06:52.891Z,101291.72
2022-09-23T20:09:21.776Z,101475.94
2022-09-23T20:11:52.172Z,101326.13
2022-09-23T20:14:22.001Z,101463.59
2022-09-23T20:16:51.966Z,101456.47
2022-09-23T20:19:20.740Z,101477.63
2022-09-23T20:22:10.014Z,101477.66
2022-09-23T20:24:38.587Z,101476.78
2022-09-23T20:27:11.432Z,101434.50
2022-09-23T20:29:40.191Z,101278.56
2022-09-23T20:32:09.366Z,101347.16
2022-09-23T20:34:37.851Z,101474.97
2022-09-23T20:37:06.907Z,101343.66
2022-09-23T20:39:35.545Z,101468.84
2022-09-23T20:42:04.317Z,101476.78
2022-09-23T20:44:34.238Z,101451.19
2022-09-23T20:47:02.894Z,101432.69
2022-09-23T20:49:32.845Z,101423.00
2022-09-23T20:52:02.672Z,101437.97
2022-09-23T20:54:32.088Z,101258.25
2022-09-23T20:57:01.472Z,101404.50
2022-09-23T20:59:30.090Z,101422.13
2022-09-23T21:02:00.359Z,101242.47
2022-09-23T21:04:31.242Z,101380.69
2022-09-23T21:07:01.108Z,101384.28
2022-09-23T21:09:31.992Z,101341.94
2022-09-23T21:12:00.508Z,101391.16
2022-09-23T21:14:29.070Z,101472.31
2022-09-23T21:16:59.441Z,101461.72
2022-09-23T21:19:28.086Z,101355.09
2022-09-23T21:21:56.829Z,101468.81
2022-09-23T21:25:03.487Z,101444.09
2022-09-23T21:27:14.025Z,101377.13
2022-09-23T21:29:42.598Z,101463.53
2022-09-23T21:32:12.525Z,101473.13
2022-09-23T21:34:40.956Z,101316.25
2022-09-23T21:37:09.587Z,101479.28
2022-09-23T21:39:38.093Z,101355.81
2022-09-23T21:42:07.051Z,101353.06
2022-09-23T21:44:35.765Z,101315.03
2022-09-23T21:47:04.283Z,101461.34
2022-09-23T21:49:34.200Z,101473.78
2022-09-23T21:52:03.217Z,101428.84
2022-09-23T21:54:32.045Z,101411.06
2022-09-23T21:57:00.974Z,101340.53
2022-09-23T21:59:29.418Z,101363.44
2022-09-23T22:01:59.351Z,101416.38
2022-09-23T22:04:27.877Z,101405.00
2022-09-23T22:07:00.391Z,101433.25
2022-09-23T22:09:29.285Z,101382.13
2022-09-23T22:12:08.674Z,101464.06
2022-09-23T22:14:38.928Z,101353.66
2022-09-23T22:17:10.551Z,101383.81
2022-09-23T22:19:45.888Z,101427.91
2022-09-23T22:22:18.792Z,101449.06
2022-09-23T22:24:49.021Z,101408.50
2022-09-23T22:27:20.602Z,101448.16
2022-09-23T22:30:06.566Z,101423.44
2022-09-23T22:32:52.829Z,101469.34
2022-09-23T22:35:22.997Z,101415.53
2022-09-23T22:37:52.799Z,101459.66
2022-09-23T22:40:24.353Z,101432.25
2022-09-23T22:42:53.511Z,101467.50
2022-09-23T22:45:21.915Z,101429.66
2022-09-23T22:47:53.249Z,101464.03
2022-09-23T22:50:21.684Z,101439.31
2022-09-23T22:52:50.357Z,101418.22
2022-09-23T22:55:20.331Z,101328.22
2022-09-23T22:57:51.661Z,101419.91
2022-09-23T23:00:20.571Z,101331.72
2022-09-23T23:02:48.965Z,101236.63
2022-09-23T23:05:17.671Z,101450.78
2022-09-23T23:07:46.170Z,101444.72
2022-09-23T23:10:15.337Z,101247.19
2022-09-23T23:12:46.916Z,101382.88
2022-09-23T23:15:16.585Z,101269.22
2022-09-23T23:17:45.010Z,101412.84
2022-09-23T23:20:15.522Z,101433.16
2022-09-23T23:22:44.177Z,101422.59
2022-09-23T23:25:12.635Z,101432.38
2022-09-23T23:27:41.219Z,101428.84
2022-09-23T23:30:13.056Z,101198.84
2022-09-23T23:32:41.660Z,101240.31
2022-09-23T23:35:10.753Z,101267.72
2022-09-23T23:37:39.225Z,101427.06
2022-09-23T23:40:09.863Z,101389.22
2022-09-23T23:42:38.437Z,101290.63
2022-09-23T23:45:08.484Z,101334.66
2022-09-23T23:47:38.912Z,101376.94
2022-09-23T23:50:09.802Z,101174.19
2022-09-23T23:52:38.507Z,101411.31
2022-09-23T23:55:07.939Z,101413.06
2022-09-23T23:57:36.432Z,101381.31
